createdAt,value
2022-12-24T00:00:46.445Z,1004.69
2022-12-24T00:01:46.371Z,1004.72
2022-12-24T00:02:46.544Z,1004.72
2022-12-24T00:03:46.524Z,1004.79
2022-12-24T00:04:46.377Z,1004.78
2022-12-24T00:05:46.321Z,1004.83
2022-12-24T00:06:46.341Z,1004.75
2022-12-24T00:07:46.304Z,1004.87
2022-12-24T00:08:46.326Z,1004.81
2022-12-24T00:09:46.296Z,1004.88
2022-12-24T00:10:46.267Z,1004.92
2022-12-24T00:11:46.241Z,1004.88
2022-12-24T00:12:46.281Z,1004.85
2022-12-24T00:13:46.271Z,1004.90
2022-12-24T00:14:46.233Z,1005.00
2022-12-24T00:15:46.221Z,1004.91
2022-12-24T00:16:46.242Z,1004.95
2022-12-24T00:17:46.175Z,1004.99
2022-12-24T00:18:47.119Z,1005.02
2022-12-24T00:19:46.175Z,1004.99
2022-12-24T00:20:46.169Z,1005.12
2022-12-24T00:21:46.123Z,1005.00
2022-12-24T00:22:46.136Z,1005.06
2022-12-24T00:23:46.088Z,1005.13
2022-12-24T00:24:46.127Z,1005.13
2022-12-24T00:25:46.111Z,1005.08
2022-12-24T00:26:46.084Z,1005.15
2022-12-24T00:27:46.037Z,1005.09
2022-12-24T00:28:46.086Z,1005.06
2022-12-24T00:29:46.026Z,1005.06
2022-12-24T00:30:46.058Z,1005.06
2022-12-24T00:31:46.013Z,1005.05
2022-12-24T00:32:46.005Z,1005.05
2022-12-24T00:33:45.956Z,1005.05
2022-12-24T00:34:45.991Z,1005.09
2022-12-24T00:35:46.009Z,1005.14
2022-12-24T00:36:45.926Z,1005.05
2022-12-24T00:37:45.905Z,1005.06
2022-12-24T00:38:45.916Z,1005.02
2022-12-24T00:39:45.878Z,1005.02
2022-12-24T00:40:45.876Z,1004.99
2022-12-24T00:41:45.892Z,1005.07
2022-12-24T00:42:45.878Z,1005.00
2022-12-24T00:43:45.826Z,1005.00
2022-12-24T00:44:45.814Z,1004.95
2022-12-24T00:45:45.876Z,1004.98
2022-12-24T00:46:45.961Z,1004.95
2022-12-24T00:47:45.787Z,1005.02
2022-12-24T00:48:45.808Z,1004.99
2022-12-24T00:49:45.791Z,1005.06
2022-12-24T00:50:45.861Z,1005.09
2022-12-24T00:51:45.760Z,1005.07
2022-12-24T00:52:45.757Z,1005.05
2022-12-24T00:53:45.813Z,1005.17
2022-12-24T00:54:45.712Z,1005.18
2022-12-24T00:55:45.738Z,1005.24
2022-12-24T00:56:45.755Z,1005.26
2022-12-24T00:57:45.651Z,1005.23
2022-12-24T00:58:46.443Z,1005.24
2022-12-24T00:59:45.653Z,1005.21
2022-12-24T01:00:45.641Z,1005.18
2022-12-24T01:01:45.729Z,1005.26
2022-12-24T01:02:46.008Z,1005.19
2022-12-24T01:03:45.680Z,1005.30
2022-12-24T01:04:45.785Z,1005.15
2022-12-24T01:05:45.584Z,1005.29
2022-12-24T01:06:45.631Z,1005.33
2022-12-24T01:07:45.640Z,1005.33
2022-12-24T01:08:45.625Z,1005.36
2022-12-24T01:09:45.590Z,1005.25
2022-12-24T01:10:45.548Z,1005.36
2022-12-24T01:11:49.848Z,1005.37
2022-12-24T01:12:45.508Z,1005.42
2022-12-24T01:13:45.551Z,1005.39
2022-12-24T01:14:45.501Z,1005.44
2022-12-24T01:15:45.563Z,1005.41
2022-12-24T01:16:45.543Z,1005.44
2022-12-24T01:17:45.456Z,1005.47
2022-12-24T01:18:45.520Z,1005.48
2022-12-24T01:19:45.427Z,1005.51
2022-12-24T01:20:45.576Z,1005.50
2022-12-24T01:21:45.396Z,1005.62
2022-12-24T01:22:45.416Z,1005.56
2022-12-24T01:23:45.406Z,1005.59
2022-12-24T01:24:45.551Z,1005.64
2022-12-24T01:25:45.425Z,1005.75
2022-12-24T01:26:45.400Z,1005.72
2022-12-24T01:27:45.443Z,1005.63
2022-12-24T01:28:45.434Z,1005.62
2022-12-24T01:29:45.288Z,1005.64
2022-12-24T01:30:45.303Z,1005.67
2022-12-24T01:31:45.232Z,1005.59
2022-12-24T01:32:45.330Z,1005.62
2022-12-24T01:33:45.297Z,1005.61
2022-12-24T01:34:45.334Z,1005.67
2022-12-24T01:35:45.419Z,1005.66
2022-12-24T01:36:45.207Z,1005.74
2022-12-24T01:37:45.147Z,1005.64
2022-12-24T01:38:45.167Z,1005.66
2022-12-24T01:39:45.156Z,1005.69
2022-12-24T01:40:45.201Z,1005.70
2022-12-24T01:41:45.157Z,1005.75
2022-12-24T01:42:52.947Z,1005.75
2022-12-24T01:43:45.037Z,1005.78
2022-12-24T01:44:45.071Z,1005.71
2022-12-24T01:45:45.041Z,1005.79
2022-12-24T01:46:45.099Z,1005.71
2022-12-24T01:47:44.985Z,1005.69
2022-12-24T01:48:45.016Z,1005.66
2022-12-24T01:49:45.000Z,1005.71
2022-12-24T01:50:45.030Z,1005.74
2022-12-24T01:51:44.964Z,1005.70
2022-12-24T01:52:44.938Z,1005.76
2022-12-24T01:53:44.942Z,1005.81
2022-12-24T01:54:44.915Z,1005.79
2022-12-24T01:55:44.895Z,1005.84
2022-12-24T01:56:44.910Z,1005.82
2022-12-24T01:57:44.880Z,1005.79
2022-12-24T01:58:44.879Z,1005.79
2022-12-24T01:59:44.880Z,1005.79
2022-12-24T02:00:44.863Z,1005.79
2022-12-24T02:01:44.924Z,1005.82
2022-12-24T02:02:44.887Z,1005.80
2022-12-24T02:03:44.893Z,1005.93
2022-12-24T02:04:44.796Z,1005.88
2022-12-24T02:05:44.763Z,1005.84
2022-12-24T02:06:44.772Z,1006.00
2022-12-24T02:07:44.737Z,1005.91
2022-12-24T02:08:44.737Z,1005.93
2022-12-24T02:09:44.741Z,1005.94
2022-12-24T02:10:44.696Z,1005.93
2022-12-24T02:11:44.710Z,1005.93
2022-12-24T02:12:44.699Z,1005.89
2022-12-24T02:13:44.681Z,1005.95
2022-12-24T02:14:44.689Z,1006.04
2022-12-24T02:15:44.683Z,1006.02
2022-12-24T02:16:44.680Z,1006.03
2022-12-24T02:17:44.590Z,1006.07
2022-12-24T02:18:44.591Z,1006.01
2022-12-24T02:19:44.596Z,1006.01
2022-12-24T02:20:44.580Z,1006.06
2022-12-24T02:21:44.554Z,1006.01
2022-12-24T02:22:44.539Z,1006.09
2022-12-24T02:23:44.535Z,1006.13
2022-12-24T02:24:44.535Z,1006.13
2022-12-24T02:25:44.501Z,1006.11
2022-12-24T02:26:44.479Z,1006.17
2022-12-24T02:27:44.485Z,1006.15
2022-12-24T02:28:44.458Z,1006.22
2022-12-24T02:29:44.460Z,1006.25
2022-12-24T02:30:44.483Z,1006.19
2022-12-24T02:31:44.487Z,1006.21
2022-12-24T02:32:44.432Z,1006.26
2022-12-24T02:33:44.415Z,1006.22
2022-12-24T02:34:44.407Z,1006.26
2022-12-24T02:35:44.447Z,1006.32
2022-12-24T02:36:44.359Z,1006.30
2022-12-24T02:37:44.369Z,1006.34
2022-12-24T02:38:44.348Z,1006.40
2022-12-24T02:39:44.331Z,1006.34
2022-12-24T02:40:44.352Z,1006.37
2022-12-24T02:41:44.280Z,1006.39
2022-12-24T02:42:44.294Z,1006.33
2022-12-24T02:43:44.256Z,1006.32
2022-12-24T02:44:44.355Z,1006.33
2022-12-24T02:45:44.234Z,1006.38
2022-12-24T02:46:44.313Z,1006.39
2022-12-24T02:47:44.441Z,1006.47
2022-12-24T02:48:44.225Z,1006.50
2022-12-24T02:49:44.204Z,1006.47
2022-12-24T02:50:44.182Z,1006.43
2022-12-24T02:51:44.179Z,1006.45
2022-12-24T02:52:44.171Z,1006.46
2022-12-24T02:53:44.145Z,1006.43
2022-12-24T02:54:44.132Z,1006.37
2022-12-24T02:55:44.146Z,1006.39
2022-12-24T02:56:44.140Z,1006.42
2022-12-24T02:57:44.112Z,1006.51
2022-12-24T02:58:44.083Z,1006.47
2022-12-24T02:59:44.080Z,1006.49
2022-12-24T03:00:44.121Z,1006.50
2022-12-24T03:01:44.191Z,1006.37
2022-12-24T03:02:44.081Z,1006.53
2022-12-24T03:03:44.055Z,1006.52
2022-12-24T03:04:44.857Z,1006.50
2022-12-24T03:05:44.008Z,1006.62
2022-12-24T03:06:43.964Z,1006.55
2022-12-24T03:07:43.933Z,1006.58
2022-12-24T03:08:43.974Z,1006.55
2022-12-24T03:09:43.941Z,1006.53
2022-12-24T03:10:43.901Z,1006.54
2022-12-24T03:11:43.977Z,1006.53
2022-12-24T03:12:43.907Z,1006.53
2022-12-24T03:13:43.880Z,1006.55
2022-12-24T03:14:43.861Z,1006.71
2022-12-24T03:15:43.838Z,1006.54
2022-12-24T03:16:43.879Z,1006.58
2022-12-24T03:17:43.837Z,1006.52
2022-12-24T03:18:43.832Z,1006.57
2022-12-24T03:19:43.771Z,1006.65
2022-12-24T03:20:43.810Z,1006.57
2022-12-24T03:21:43.841Z,1006.52
2022-12-24T03:22:43.790Z,1006.61
2022-12-24T03:23:43.775Z,1006.55
2022-12-24T03:24:43.768Z,1006.62
2022-12-24T03:25:43.745Z,1006.58
2022-12-24T03:26:43.709Z,1006.63
2022-12-24T03:27:43.688Z,1006.67
2022-12-24T03:28:43.691Z,1006.63
2022-12-24T03:29:43.662Z,1006.71
2022-12-24T03:30:43.650Z,1006.68
2022-12-24T03:31:43.683Z,1006.75
2022-12-24T03:32:43.635Z,1006.78
2022-12-24T03:33:43.589Z,1006.80
2022-12-24T03:34:43.599Z,1006.76
2022-12-24T03:35:43.607Z,1006.76
2022-12-24T03:36:43.578Z,1006.86
2022-12-24T03:37:43.589Z,1006.79
2022-12-24T03:38:43.562Z,1006.80
2022-12-24T03:39:43.552Z,1006.90
2022-12-24T03:40:43.547Z,1006.87
2022-12-24T03:41:43.539Z,1006.78
2022-12-24T03:42:43.488Z,1006.79
2022-12-24T03:43:43.459Z,1006.81
2022-12-24T03:44:43.494Z,1006.75
2022-12-24T03:45:43.604Z,1006.79
2022-12-24T03:46:43.507Z,1006.76
2022-12-24T03:47:43.416Z,1006.73
2022-12-24T03:48:43.407Z,1006.72
2022-12-24T03:49:43.389Z,1006.76
2022-12-24T03:50:43.413Z,1006.78
2022-12-24T03:51:43.356Z,1006.80
2022-12-24T03:52:43.391Z,1006.81
2022-12-24T03:53:43.335Z,1006.82
2022-12-24T03:54:43.352Z,1006.83
2022-12-24T03:55:43.348Z,1006.80
2022-12-24T03:56:43.323Z,1006.92
2022-12-24T03:57:43.290Z,1006.88
2022-12-24T03:58:43.338Z,1006.80
2022-12-24T03:59:43.264Z,1006.76
2022-12-24T04:00:43.365Z,1006.82
2022-12-24T04:01:43.457Z,1006.87
2022-12-24T04:02:43.480Z,1006.84
2022-12-24T04:03:43.222Z,1006.92
2022-12-24T04:04:43.194Z,1006.94
2022-12-24T04:05:43.175Z,1006.96
2022-12-24T04:06:43.173Z,1006.93
2022-12-24T04:07:43.171Z,1006.84
2022-12-24T04:08:43.204Z,1006.96
2022-12-24T04:09:44.089Z,1006.94
2022-12-24T04:10:43.118Z,1006.94
2022-12-24T04:11:43.137Z,1006.95
2022-12-24T04:12:43.128Z,1006.96
2022-12-24T04:13:43.185Z,1007.01
2022-12-24T04:14:43.062Z,1007.06
2022-12-24T04:15:43.054Z,1007.04
2022-12-24T04:16:43.130Z,1007.03
2022-12-24T04:17:43.145Z,1007.06
2022-12-24T04:18:43.025Z,1007.04
2022-12-24T04:19:43.002Z,1007.08
2022-12-24T04:20:42.994Z,1007.03
2022-12-24T04:21:43.000Z,1007.00
2022-12-24T04:22:42.950Z,1007.08
2022-12-24T04:23:42.986Z,1007.10
2022-12-24T04:24:43.001Z,1007.12
2022-12-24T04:25:43.889Z,1007.06
2022-12-24T04:26:42.924Z,1007.05
2022-12-24T04:27:42.922Z,1007.14
2022-12-24T04:28:42.927Z,1007.17
2022-12-24T04:29:42.905Z,1007.16
2022-12-24T04:30:42.845Z,1007.23
2022-12-24T04:31:42.924Z,1007.27
2022-12-24T04:32:42.848Z,1007.19
2022-12-24T04:33:42.860Z,1007.22
2022-12-24T04:34:42.811Z,1007.18
2022-12-24T04:35:42.799Z,1007.12
2022-12-24T04:36:42.800Z,1007.20
2022-12-24T04:37:42.778Z,1007.21
2022-12-24T04:38:42.758Z,1007.19
2022-12-24T04:39:42.780Z,1007.20
2022-12-24T04:40:42.710Z,1007.29
2022-12-24T04:41:42.715Z,1007.30
2022-12-24T04:42:42.701Z,1007.30
2022-12-24T04:43:42.742Z,1007.32
2022-12-24T04:44:42.701Z,1007.25
2022-12-24T04:45:42.764Z,1007.28
2022-12-24T04:46:42.648Z,1007.24
2022-12-24T04:47:42.664Z,1007.29
2022-12-24T04:48:42.605Z,1007.30
2022-12-24T04:49:42.647Z,1007.32
2022-12-24T04:50:42.587Z,1007.35
2022-12-24T04:51:42.605Z,1007.33
2022-12-24T04:52:42.585Z,1007.35
2022-12-24T04:53:42.569Z,1007.33
2022-12-24T04:54:42.551Z,1007.32
2022-12-24T04:55:42.573Z,1007.35
2022-12-24T04:56:42.530Z,1007.42
2022-12-24T04:57:43.987Z,1007.37
2022-12-24T04:58:42.541Z,1007.42
2022-12-24T04:59:42.509Z,1007.42
2022-12-24T05:00:42.462Z,1007.34
2022-12-24T05:01:42.610Z,1007.43
2022-12-24T05:02:42.719Z,1007.36
2022-12-24T05:03:42.427Z,1007.34
2022-12-24T05:04:42.408Z,1007.35
2022-12-24T05:05:42.468Z,1007.39
2022-12-24T05:06:42.408Z,1007.50
2022-12-24T05:07:42.419Z,1007.45
2022-12-24T05:08:43.318Z,1007.49
2022-12-24T05:09:42.344Z,1007.48
2022-12-24T05:10:42.344Z,1007.48
2022-12-24T05:11:42.463Z,1007.45
2022-12-24T05:12:42.284Z,1007.49
2022-12-24T05:13:46.647Z,1007.51
2022-12-24T05:14:43.363Z,1007.53
2022-12-24T05:15:42.272Z,1007.54
2022-12-24T05:16:42.303Z,1007.46
2022-12-24T05:17:42.232Z,1007.54
2022-12-24T05:18:42.244Z,1007.49
2022-12-24T05:19:42.220Z,1007.55
2022-12-24T05:20:42.207Z,1007.57
2022-12-24T05:21:42.361Z,1007.53
2022-12-24T05:22:42.216Z,1007.55
2022-12-24T05:23:42.256Z,1007.52
2022-12-24T05:24:42.180Z,1007.56
2022-12-24T05:25:42.210Z,1007.57
2022-12-24T05:26:42.155Z,1007.61
2022-12-24T05:27:50.894Z,1007.62
2022-12-24T05:28:43.109Z,1007.62
2022-12-24T05:29:42.081Z,1007.64
2022-12-24T05:30:42.815Z,1007.65
2022-12-24T05:31:43.014Z,1007.60
2022-12-24T05:32:42.040Z,1007.67
2022-12-24T05:33:42.047Z,1007.69
2022-12-24T05:34:42.004Z,1007.67
2022-12-24T05:35:42.018Z,1007.73
2022-12-24T05:36:42.021Z,1007.77
2022-12-24T05:37:42.017Z,1007.67
2022-12-24T05:38:41.969Z,1007.72
2022-12-24T05:39:42.001Z,1007.77
2022-12-24T05:40:41.938Z,1007.72
2022-12-24T05:41:41.952Z,1007.70
2022-12-24T05:42:41.926Z,1007.70
2022-12-24T05:43:41.910Z,1007.69
2022-12-24T05:44:41.908Z,1007.67
2022-12-24T05:45:41.916Z,1007.73
2022-12-24T05:46:41.954Z,1007.74
2022-12-24T05:47:43.588Z,1007.72
2022-12-24T05:48:41.869Z,1007.73
2022-12-24T05:49:41.850Z,1007.72
2022-12-24T05:50:41.810Z,1007.76
2022-12-24T05:51:41.790Z,1007.73
2022-12-24T05:52:41.840Z,1007.86
2022-12-24T05:53:41.796Z,1007.86
2022-12-24T05:54:41.779Z,1007.86
2022-12-24T05:55:41.775Z,1007.83
2022-12-24T05:56:41.745Z,1007.85
2022-12-24T05:57:41.720Z,1007.87
2022-12-24T05:58:41.713Z,1007.85
2022-12-24T05:59:41.697Z,1007.87
2022-12-24T06:00:41.681Z,1007.86
2022-12-24T06:01:42.158Z,1007.88
2022-12-24T06:02:42.142Z,1007.91
2022-12-24T06:03:42.763Z,1007.88
2022-12-24T06:04:44.832Z,1007.92
2022-12-24T06:05:42.607Z,1007.93
2022-12-24T06:06:41.624Z,1007.99
2022-12-24T06:07:42.538Z,1007.97
2022-12-24T06:08:41.611Z,1008.00
2022-12-24T06:09:41.582Z,1007.94
2022-12-24T06:10:41.553Z,1007.95
2022-12-24T06:11:41.573Z,1007.92
2022-12-24T06:12:41.499Z,1008.02
2022-12-24T06:13:41.549Z,1008.02
2022-12-24T06:14:41.484Z,1008.00
2022-12-24T06:15:41.576Z,1008.02
2022-12-24T06:16:41.525Z,1007.98
2022-12-24T06:17:41.487Z,1008.08
2022-12-24T06:18:41.470Z,1007.98
2022-12-24T06:19:41.434Z,1007.95
2022-12-24T06:20:42.184Z,1007.96
2022-12-24T06:21:41.424Z,1007.93
2022-12-24T06:22:41.420Z,1007.90
2022-12-24T06:23:41.384Z,1007.98
2022-12-24T06:24:41.403Z,1008.06
2022-12-24T06:25:41.391Z,1008.02
2022-12-24T06:26:41.324Z,1008.03
2022-12-24T06:27:41.314Z,1008.10
2022-12-24T06:28:42.234Z,1008.16
2022-12-24T06:29:41.318Z,1008.07
2022-12-24T06:30:41.551Z,1008.07
2022-12-24T06:31:41.338Z,1008.05
2022-12-24T06:32:41.244Z,1008.06
2022-12-24T06:33:41.289Z,1008.11
2022-12-24T06:34:41.240Z,1008.14
2022-12-24T06:35:41.280Z,1008.10
2022-12-24T06:36:41.194Z,1008.15
2022-12-24T06:37:41.219Z,1008.17
2022-12-24T06:38:41.193Z,1008.21
2022-12-24T06:39:41.153Z,1008.11
2022-12-24T06:40:41.161Z,1008.20
2022-12-24T06:41:41.169Z,1008.19
2022-12-24T06:42:41.137Z,1008.17
2022-12-24T06:43:41.115Z,1008.20
2022-12-24T06:44:41.197Z,1008.22
2022-12-24T06:45:41.114Z,1008.21
2022-12-24T06:46:41.215Z,1008.27
2022-12-24T06:47:41.060Z,1008.23
2022-12-24T06:48:41.035Z,1008.28
2022-12-24T06:49:41.067Z,1008.26
2022-12-24T06:50:41.067Z,1008.33
2022-12-24T06:51:41.087Z,1008.26
2022-12-24T06:52:40.996Z,1008.33
2022-12-24T06:53:41.022Z,1008.35
2022-12-24T06:54:40.996Z,1008.34
2022-12-24T06:55:41.027Z,1008.34
2022-12-24T06:56:40.940Z,1008.34
2022-12-24T06:57:40.984Z,1008.49
2022-12-24T06:58:40.994Z,1008.47
2022-12-24T06:59:40.987Z,1008.53
2022-12-24T07:00:41.720Z,1008.60
2022-12-24T07:01:41.095Z,1008.54
2022-12-24T07:02:40.921Z,1008.62
2022-12-24T07:03:40.913Z,1008.58
2022-12-24T07:04:40.850Z,1008.64
2022-12-24T07:05:40.866Z,1008.66
2022-12-24T07:06:40.844Z,1008.54
2022-12-24T07:07:40.826Z,1008.58
2022-12-24T07:08:40.805Z,1008.60
2022-12-24T07:09:40.790Z,1008.61
2022-12-24T07:10:41.571Z,1008.62
2022-12-24T07:11:40.817Z,1008.68
2022-12-24T07:12:40.706Z,1008.62
2022-12-24T07:13:40.718Z,1008.67
2022-12-24T07:14:40.730Z,1008.71
2022-12-24T07:15:40.810Z,1008.71
2022-12-24T07:16:42.713Z,1008.69
2022-12-24T07:17:40.812Z,1008.69
2022-12-24T07:18:40.786Z,1008.68
2022-12-24T07:19:41.461Z,1008.69
2022-12-24T07:20:40.628Z,1008.67
2022-12-24T07:21:40.683Z,1008.68
2022-12-24T07:22:40.643Z,1008.67
2022-12-24T07:23:40.634Z,1008.66
2022-12-24T07:24:40.568Z,1008.66
2022-12-24T07:25:40.556Z,1008.71
2022-12-24T07:26:40.557Z,1008.71
2022-12-24T07:27:40.516Z,1008.74
2022-12-24T07:28:40.517Z,1008.76
2022-12-24T07:29:40.521Z,1008.78
2022-12-24T07:30:41.277Z,1008.74
2022-12-24T07:31:40.529Z,1008.83
2022-12-24T07:32:40.498Z,1008.80
2022-12-24T07:33:40.473Z,1008.80
2022-12-24T07:34:40.429Z,1008.91
2022-12-24T07:35:40.460Z,1008.89
2022-12-24T07:36:40.415Z,1008.87
2022-12-24T07:37:40.466Z,1008.88
2022-12-24T07:38:40.376Z,1008.90
2022-12-24T07:39:40.441Z,1008.93
2022-12-24T07:40:40.401Z,1008.91
2022-12-24T07:41:41.988Z,1008.90
2022-12-24T07:42:40.366Z,1008.89
2022-12-24T07:43:49.790Z,1008.95
2022-12-24T07:44:40.321Z,1008.99
2022-12-24T07:45:40.332Z,1009.01
2022-12-24T07:46:40.503Z,1009.06
2022-12-24T07:47:40.264Z,1009.09
2022-12-24T07:48:40.285Z,1009.06
2022-12-24T07:49:40.300Z,1009.08
2022-12-24T07:50:40.257Z,1009.10
2022-12-24T07:51:40.217Z,1009.14
2022-12-24T07:52:40.217Z,1009.14
2022-12-24T07:53:40.223Z,1009.16
2022-12-24T07:54:40.173Z,1009.14
2022-12-24T07:55:40.902Z,1009.22
2022-12-24T07:56:40.181Z,1009.17
2022-12-24T07:57:40.152Z,1009.22
2022-12-24T07:58:40.133Z,1009.15
2022-12-24T07:59:40.140Z,1009.15
2022-12-24T08:00:40.112Z,1009.10
2022-12-24T08:01:40.185Z,1009.16
2022-12-24T08:02:40.287Z,1009.22
2022-12-24T08:03:40.275Z,1009.22
2022-12-24T08:04:40.033Z,1009.20
2022-12-24T08:05:40.067Z,1009.22
2022-12-24T08:06:40.041Z,1009.21
2022-12-24T08:07:40.047Z,1009.24
2022-12-24T08:08:40.063Z,1009.23
2022-12-24T08:09:40.024Z,1009.34
2022-12-24T08:10:39.961Z,1009.34
2022-12-24T08:11:40.924Z,1009.35
2022-12-24T08:12:39.967Z,1009.34
2022-12-24T08:13:39.927Z,1009.39
2022-12-24T08:14:39.916Z,1009.39
2022-12-24T08:15:39.945Z,1009.37
2022-12-24T08:16:39.917Z,1009.37
2022-12-24T08:17:39.908Z,1009.43
2022-12-24T08:18:39.881Z,1009.40
2022-12-24T08:19:39.966Z,1009.36
2022-12-24T08:20:39.837Z,1009.40
2022-12-24T08:21:39.876Z,1009.37
2022-12-24T08:22:39.804Z,1009.42
2022-12-24T08:23:39.858Z,1009.42
2022-12-24T08:24:39.829Z,1009.43
2022-12-24T08:25:39.803Z,1009.44
2022-12-24T08:26:39.785Z,1009.48
2022-12-24T08:27:39.747Z,1009.37
2022-12-24T08:28:39.745Z,1009.45
2022-12-24T08:29:39.734Z,1009.43
2022-12-24T08:30:39.688Z,1009.45
2022-12-24T08:31:39.781Z,1009.42
2022-12-24T08:32:39.703Z,1009.52
2022-12-24T08:33:39.694Z,1009.42
2022-12-24T08:34:39.657Z,1009.50
2022-12-24T08:35:39.661Z,1009.50
2022-12-24T08:36:39.644Z,1009.50
2022-12-24T08:37:39.647Z,1009.49
2022-12-24T08:38:39.654Z,1009.50
2022-12-24T08:39:39.576Z,1009.57
2022-12-24T08:40:39.611Z,1009.48
2022-12-24T08:41:39.566Z,1009.51
2022-12-24T08:42:39.664Z,1009.61
2022-12-24T08:43:39.619Z,1009.54
2022-12-24T08:44:39.516Z,1009.54
2022-12-24T08:45:40.954Z,1009.59
2022-12-24T08:46:39.591Z,1009.60
2022-12-24T08:47:39.459Z,1009.60
2022-12-24T08:48:39.495Z,1009.60
2022-12-24T08:49:39.444Z,1009.60
2022-12-24T08:50:39.476Z,1009.61
2022-12-24T08:51:39.415Z,1009.59
2022-12-24T08:52:39.444Z,1009.56
2022-12-24T08:53:39.419Z,1009.57
2022-12-24T08:54:39.409Z,1009.61
2022-12-24T08:55:39.390Z,1009.54
2022-12-24T08:56:39.380Z,1009.58
2022-12-24T08:57:39.341Z,1009.59
2022-12-24T08:58:39.369Z,1009.56
2022-12-24T08:59:39.310Z,1009.58
2022-12-24T09:00:39.347Z,1009.61
2022-12-24T09:01:39.440Z,1009.59
2022-12-24T09:02:39.390Z,1009.66
2022-12-24T09:03:39.456Z,1009.64
2022-12-24T09:04:39.255Z,1009.69
2022-12-24T09:05:39.225Z,1009.71
2022-12-24T09:06:39.277Z,1009.71
2022-12-24T09:07:39.237Z,1009.80
2022-12-24T09:08:39.243Z,1009.74
2022-12-24T09:09:39.172Z,1009.77
2022-12-24T09:10:39.201Z,1009.77
2022-12-24T09:11:39.161Z,1009.82
2022-12-24T09:12:39.154Z,1009.84
2022-12-24T09:13:39.123Z,1009.86
2022-12-24T09:14:39.159Z,1009.85
2022-12-24T09:15:39.135Z,1009.82
2022-12-24T09:16:39.207Z,1009.87
2022-12-24T09:17:39.091Z,1009.85
2022-12-24T09:18:39.098Z,1009.91
2022-12-24T09:19:39.075Z,1009.90
2022-12-24T09:20:44.289Z,1009.93
2022-12-24T09:21:40.046Z,1009.94
2022-12-24T09:22:39.013Z,1010.02
2022-12-24T09:23:38.990Z,1010.03
2022-12-24T09:24:39.017Z,1010.08
2022-12-24T09:25:38.973Z,1010.09
2022-12-24T09:26:39.011Z,1010.06
2022-12-24T09:27:38.948Z,1010.06
2022-12-24T09:28:38.975Z,1010.03
2022-12-24T09:29:38.907Z,1010.10
2022-12-24T09:30:38.948Z,1010.06
2022-12-24T09:31:38.924Z,1010.13
2022-12-24T09:32:38.947Z,1010.13
2022-12-24T09:33:38.914Z,1010.16
2022-12-24T09:34:38.884Z,1010.21
2022-12-24T09:35:38.860Z,1010.21
2022-12-24T09:36:38.855Z,1010.22
2022-12-24T09:37:38.840Z,1010.32
2022-12-24T09:38:38.810Z,1010.27
2022-12-24T09:39:38.776Z,1010.35
2022-12-24T09:40:38.805Z,1010.46
2022-12-24T09:41:38.794Z,1010.47
2022-12-24T09:42:38.751Z,1010.46
2022-12-24T09:43:38.726Z,1010.55
2022-12-24T09:44:38.772Z,1010.54
2022-12-24T09:45:38.758Z,1010.54
2022-12-24T09:46:38.695Z,1010.52
2022-12-24T09:47:38.724Z,1010.53
2022-12-24T09:48:38.702Z,1010.52
2022-12-24T09:49:38.673Z,1010.54
2022-12-24T09:50:38.673Z,1010.58
2022-12-24T09:51:38.665Z,1010.54
2022-12-24T09:52:38.673Z,1010.57
2022-12-24T09:53:38.575Z,1010.57
2022-12-24T09:54:38.584Z,1010.56
2022-12-24T09:55:38.602Z,1010.55
2022-12-24T09:56:38.632Z,1010.58
2022-12-24T09:57:38.580Z,1010.58
2022-12-24T09:58:38.584Z,1010.52
2022-12-24T09:59:38.561Z,1010.46
2022-12-24T10:00:38.557Z,1010.49
2022-12-24T10:01:38.714Z,1010.49
2022-12-24T10:02:38.715Z,1010.56
2022-12-24T10:03:38.543Z,1010.54
2022-12-24T10:04:38.519Z,1010.52
2022-12-24T10:05:38.484Z,1010.54
2022-12-24T10:06:38.485Z,1010.52
2022-12-24T10:07:38.462Z,1010.59
2022-12-24T10:08:38.416Z,1010.59
2022-12-24T10:09:38.391Z,1010.64
2022-12-24T10:10:38.383Z,1010.59
2022-12-24T10:11:38.382Z,1010.56
2022-12-24T10:12:38.390Z,1010.67
2022-12-24T10:13:38.364Z,1010.65
2022-12-24T10:14:38.408Z,1010.64
2022-12-24T10:15:38.318Z,1010.75
2022-12-24T10:16:38.460Z,1010.68
2022-12-24T10:17:38.369Z,1010.66
2022-12-24T10:18:38.304Z,1010.68
2022-12-24T10:19:38.272Z,1010.67
2022-12-24T10:20:38.269Z,1010.68
2022-12-24T10:21:38.245Z,1010.68
2022-12-24T10:22:38.243Z,1010.70
2022-12-24T10:23:38.234Z,1010.70
2022-12-24T10:24:38.199Z,1010.74
2022-12-24T10:25:38.202Z,1010.68
2022-12-24T10:26:38.197Z,1010.72
2022-12-24T10:27:38.204Z,1010.68
2022-12-24T10:28:38.165Z,1010.73
2022-12-24T10:29:38.146Z,1010.72
2022-12-24T10:30:38.182Z,1010.71
2022-12-24T10:31:38.136Z,1010.79
2022-12-24T10:32:38.116Z,1010.78
2022-12-24T10:33:38.072Z,1010.74
2022-12-24T10:34:38.102Z,1010.75
2022-12-24T10:35:38.079Z,1010.69
2022-12-24T10:36:38.062Z,1010.76
2022-12-24T10:37:38.050Z,1010.74
2022-12-24T10:38:38.019Z,1010.72
2022-12-24T10:39:38.015Z,1010.69
2022-12-24T10:40:38.017Z,1010.71
2022-12-24T10:41:37.957Z,1010.72
2022-12-24T10:42:38.004Z,1010.70
2022-12-24T10:43:37.974Z,1010.71
2022-12-24T10:44:37.965Z,1010.71
2022-12-24T10:45:37.947Z,1010.70
2022-12-24T10:46:37.976Z,1010.70
2022-12-24T10:47:37.904Z,1010.65
2022-12-24T10:48:37.891Z,1010.73
2022-12-24T10:49:37.898Z,1010.73
2022-12-24T10:50:37.856Z,1010.76
2022-12-24T10:51:38.602Z,1010.77
2022-12-24T10:52:37.828Z,1010.75
2022-12-24T10:53:37.848Z,1010.77
2022-12-24T10:54:37.941Z,1010.76
2022-12-24T10:55:37.815Z,1010.75
2022-12-24T10:56:37.859Z,1010.76
2022-12-24T10:57:37.781Z,1010.74
2022-12-24T10:58:37.763Z,1010.77
2022-12-24T10:59:37.723Z,1010.79
2022-12-24T11:00:37.799Z,1010.78
2022-12-24T11:01:37.779Z,1010.74
2022-12-24T11:02:38.030Z,1010.72
2022-12-24T11:03:37.734Z,1010.68
2022-12-24T11:04:37.692Z,1010.66
2022-12-24T11:05:37.642Z,1010.71
2022-12-24T11:06:37.699Z,1010.74
2022-12-24T11:07:37.628Z,1010.75
2022-12-24T11:08:37.715Z,1010.71
2022-12-24T11:09:37.619Z,1010.81
2022-12-24T11:10:37.624Z,1010.77
2022-12-24T11:11:37.597Z,1010.70
2022-12-24T11:12:37.575Z,1010.75
2022-12-24T11:13:39.038Z,1010.72
2022-12-24T11:14:37.549Z,1010.75
2022-12-24T11:15:37.532Z,1010.73
2022-12-24T11:16:37.541Z,1010.70
2022-12-24T11:17:37.521Z,1010.73
2022-12-24T11:18:37.517Z,1010.75
2022-12-24T11:19:37.492Z,1010.70
2022-12-24T11:20:37.484Z,1010.74
2022-12-24T11:21:37.458Z,1010.64
2022-12-24T11:22:37.480Z,1010.75
2022-12-24T11:23:37.448Z,1010.70
2022-12-24T11:24:37.424Z,1010.67
2022-12-24T11:25:44.990Z,1010.69
2022-12-24T11:26:37.377Z,1010.74
2022-12-24T11:27:42.414Z,1010.72
2022-12-24T11:28:37.424Z,1010.69
2022-12-24T11:29:37.361Z,1010.67
2022-12-24T11:30:37.420Z,1010.71
2022-12-24T11:31:37.605Z,1010.70
2022-12-24T11:32:37.301Z,1010.70
2022-12-24T11:33:37.303Z,1010.77
2022-12-24T11:34:37.315Z,1010.78
2022-12-24T11:35:37.251Z,1010.74
2022-12-24T11:36:37.251Z,1010.75
2022-12-24T11:37:37.230Z,1010.68
2022-12-24T11:38:37.253Z,1010.72
2022-12-24T11:39:37.246Z,1010.74
2022-12-24T11:40:37.234Z,1010.67
2022-12-24T11:41:37.217Z,1010.65
2022-12-24T11:42:37.232Z,1010.63
2022-12-24T11:43:37.206Z,1010.64
2022-12-24T11:44:37.165Z,1010.70
2022-12-24T11:45:37.118Z,1010.71
2022-12-24T11:46:37.182Z,1010.63
2022-12-24T11:47:37.107Z,1010.67
2022-12-24T11:48:37.099Z,1010.62
2022-12-24T11:49:37.117Z,1010.69
2022-12-24T11:50:37.064Z,1010.63
2022-12-24T11:51:37.039Z,1010.56
2022-12-24T11:52:37.075Z,1010.59
2022-12-24T11:53:37.010Z,1010.64
2022-12-24T11:54:37.065Z,1010.65
2022-12-24T11:55:36.990Z,1010.58
2022-12-24T11:56:37.016Z,1010.66
2022-12-24T11:57:36.992Z,1010.58
2022-12-24T11:58:37.013Z,1010.57
2022-12-24T11:59:36.997Z,1010.59
2022-12-24T12:00:36.949Z,1010.63
2022-12-24T12:01:37.003Z,1010.61
2022-12-24T12:02:36.951Z,1010.58
2022-12-24T12:03:37.044Z,1010.69
2022-12-24T12:04:36.911Z,1010.65
2022-12-24T12:05:36.888Z,1010.58